Дата Пункты Температура Давл., мм. Влажн., % Ветер Погодные явления
Воздуха Воды Направл. Скорость
30.09.17 03:00 Одесса 15.0 16.0 765 47 В 4 15 часов
30.09.17 12:00 Одесса 13.0 16.0 766 48 С-В 7 12 часов
30.09.17 09:00 Одесса 10.0 16.0 767 64 С-В 5 09 часов
30.09.17 06:00 Одесса 9.0 17.0 767 72 С-В 5 06 часов
30.09.17 03:00 Одесса 11.0 17.0 767 68 С-В 6 03 часа
29.09.17 09:00 Одесса 14.0 17.0 768 47 В 10 21 час
29.09.17 06:00 Одесса 15.0 17.0 768 42 С-В 8 18 часов
29.09.17 03:00 Одесса 15.0 17.0 769 42 В 7 15 часов
29.09.17 12:00 Одесса 13.0 17.0 770 48 В 9 12 часов
29.09.17 09:00 Одесса 11.0 17.0 770 71 С-В 9 09 часов
29.09.17 06:00 Одесса 10.0 18.0 770 78 С-В 5 06 часов
29.09.17 03:00 Одесса 12.0 18.0 771 68 В 8 03 часа
28.09.17 09:00 Одесса 14.0 18.0 771 47 В 9 21 час
28.09.17 06:00 Одесса 15.0 18.0 771 46 В 8 18 часов
28.09.17 03:00 Одесса 15.0 18.0 771 50 В 7 15 часов
28.09.17 12:00 Одесса 13.0 18.0 771 55 В 11 12 часов
28.09.17 09:00 Одесса 11.0 18.0 771 68 В 10 09 часов
28.09.17 06:00 Одесса 11.0 18.0 770 68 С-В 9 06 часов
28.09.17 03:00 Одесса 12.0 18.0 770 68 В 8 03 часа
27.09.17 09:00 Одесса 16.0 19.0 769 50 В 9 21 час
Количество строк
1 2 3 4 5 6 7 8 9 10
Page 7 of 284